createdAt,value
2019-02-24T00:00:47.576Z,971.02
2019-02-24T00:01:46.565Z,970.99
2019-02-24T00:02:46.556Z,971.02
2019-02-24T00:03:46.584Z,971.00
2019-02-24T00:04:46.548Z,971.04
2019-02-24T00:05:46.518Z,971.01
2019-02-24T00:06:46.509Z,970.96
2019-02-24T00:07:46.501Z,971.00
2019-02-24T00:08:46.484Z,970.99
2019-02-24T00:09:46.547Z,971.00
2019-02-24T00:10:46.466Z,971.05
2019-02-24T00:11:46.451Z,971.01
2019-02-24T00:12:46.442Z,971.06
2019-02-24T00:13:46.446Z,971.08
2019-02-24T00:14:46.431Z,971.08
2019-02-24T00:15:46.980Z,971.01
2019-02-24T00:16:46.407Z,971.03
2019-02-24T00:17:46.414Z,971.04
2019-02-24T00:18:46.427Z,971.05
2019-02-24T00:19:47.988Z,971.01
2019-02-24T00:20:46.374Z,970.98
2019-02-24T00:21:46.371Z,970.98
2019-02-24T00:22:46.333Z,970.99
2019-02-24T00:23:46.329Z,971.01
2019-02-24T00:24:46.353Z,971.03
2019-02-24T00:25:46.334Z,971.03
2019-02-24T00:26:46.289Z,971.01
2019-02-24T00:27:46.302Z,971.00
2019-02-24T00:28:46.277Z,971.00
2019-02-24T00:29:46.265Z,971.02
2019-02-24T00:30:46.252Z,971.03
2019-02-24T00:31:46.262Z,971.02
2019-02-24T00:32:46.222Z,971.03
2019-02-24T00:33:46.210Z,971.03
2019-02-24T00:34:46.207Z,971.05
2019-02-24T00:35:46.227Z,971.06
2019-02-24T00:36:46.206Z,971.07
2019-02-24T00:37:46.187Z,971.07
2019-02-24T00:38:46.161Z,971.03
2019-02-24T00:39:46.150Z,971.05
2019-02-24T00:40:46.161Z,970.98
2019-02-24T00:41:46.136Z,971.04
2019-02-24T00:42:46.125Z,971.03
2019-02-24T00:43:46.120Z,971.03
2019-02-24T00:44:46.101Z,971.03
2019-02-24T00:45:46.084Z,971.02
2019-02-24T00:46:47.074Z,971.03
2019-02-24T00:47:46.091Z,970.97
2019-02-24T00:48:46.087Z,970.99
2019-02-24T00:49:46.033Z,970.93
2019-02-24T00:50:46.032Z,970.91
2019-02-24T00:51:46.031Z,970.89
2019-02-24T00:52:46.014Z,970.89
2019-02-24T00:53:46.020Z,970.85
2019-02-24T00:54:46.017Z,970.83
2019-02-24T00:55:45.982Z,970.84
2019-02-24T00:56:45.962Z,970.82
2019-02-24T00:57:45.951Z,970.83
2019-02-24T00:58:45.957Z,970.84
2019-02-24T00:59:45.991Z,970.82
2019-02-24T01:00:45.913Z,970.85
2019-02-24T01:01:45.992Z,970.84
2019-02-24T01:02:45.898Z,970.81
2019-02-24T01:03:45.920Z,970.83
2019-02-24T01:04:45.875Z,970.82
2019-02-24T01:05:45.863Z,970.77
2019-02-24T01:06:45.858Z,970.83
2019-02-24T01:07:45.873Z,970.82
2019-02-24T01:08:45.827Z,970.80
2019-02-24T01:09:45.840Z,970.80
2019-02-24T01:10:45.807Z,970.79
2019-02-24T01:11:45.795Z,970.80
2019-02-24T01:12:45.798Z,970.77
2019-02-24T01:13:45.824Z,970.77
2019-02-24T01:14:45.811Z,970.81
2019-02-24T01:15:45.754Z,970.83
2019-02-24T01:16:45.748Z,970.77
2019-02-24T01:17:45.733Z,970.80
2019-02-24T01:18:45.725Z,970.78
2019-02-24T01:19:45.720Z,970.75
2019-02-24T01:20:45.723Z,970.81
2019-02-24T01:21:45.730Z,970.75
2019-02-24T01:22:45.681Z,970.75
2019-02-24T01:23:45.676Z,970.69
2019-02-24T01:24:45.658Z,970.74
2019-02-24T01:25:45.646Z,970.69
2019-02-24T01:26:45.654Z,970.70
2019-02-24T01:27:45.617Z,970.69
2019-02-24T01:28:45.643Z,970.70
2019-02-24T01:29:45.606Z,970.63
2019-02-24T01:30:45.589Z,970.63
2019-02-24T01:31:45.606Z,970.66
2019-02-24T01:32:45.568Z,970.64
2019-02-24T01:33:45.555Z,970.61
2019-02-24T01:34:45.570Z,970.58
2019-02-24T01:35:45.537Z,970.56
2019-02-24T01:36:45.518Z,970.61
2019-02-24T01:37:46.511Z,970.58
2019-02-24T01:38:45.503Z,970.55
2019-02-24T01:39:45.498Z,970.54
2019-02-24T01:40:45.502Z,970.57
2019-02-24T01:41:45.475Z,970.53
2019-02-24T01:42:45.496Z,970.59
2019-02-24T01:43:45.450Z,970.53
2019-02-24T01:44:45.439Z,970.57
2019-02-24T01:45:45.434Z,970.55
2019-02-24T01:46:45.412Z,970.51
2019-02-24T01:47:45.446Z,970.58
2019-02-24T01:48:45.415Z,970.56
2019-02-24T01:49:45.392Z,970.53
2019-02-24T01:50:45.377Z,970.50
2019-02-24T01:51:45.363Z,970.50
2019-02-24T01:52:45.339Z,970.48
2019-02-24T01:53:45.386Z,970.51
2019-02-24T01:54:45.326Z,970.55
2019-02-24T01:55:45.321Z,970.54
2019-02-24T01:56:45.310Z,970.56
2019-02-24T01:57:45.296Z,970.55
2019-02-24T01:58:45.288Z,970.56
2019-02-24T01:59:45.287Z,970.56
2019-02-24T02:00:45.309Z,970.54
2019-02-24T02:01:45.251Z,970.62
2019-02-24T02:02:45.243Z,970.60
2019-02-24T02:03:45.233Z,970.61
2019-02-24T02:04:45.250Z,970.64
2019-02-24T02:05:45.212Z,970.66
2019-02-24T02:06:45.202Z,970.65
2019-02-24T02:07:45.209Z,970.68
2019-02-24T02:08:45.183Z,970.64
2019-02-24T02:09:45.161Z,970.67
2019-02-24T02:10:45.168Z,970.59
2019-02-24T02:11:45.138Z,970.65
2019-02-24T02:12:45.134Z,970.64
2019-02-24T02:13:45.144Z,970.68
2019-02-24T02:14:45.126Z,970.67
2019-02-24T02:15:45.138Z,970.70
2019-02-24T02:16:45.087Z,970.66
2019-02-24T02:17:45.075Z,970.71
2019-02-24T02:18:45.063Z,970.70
2019-02-24T02:19:45.051Z,970.69
2019-02-24T02:20:45.074Z,970.70
2019-02-24T02:21:45.042Z,970.64
2019-02-24T02:22:45.024Z,970.66
2019-02-24T02:23:45.015Z,970.59
2019-02-24T02:24:44.999Z,970.59
2019-02-24T02:25:45.002Z,970.50
2019-02-24T02:26:45.004Z,970.48
2019-02-24T02:27:44.967Z,970.46
2019-02-24T02:28:44.978Z,970.38
2019-02-24T02:29:44.957Z,970.38
2019-02-24T02:30:44.934Z,970.41
2019-02-24T02:31:44.942Z,970.35
2019-02-24T02:32:44.918Z,970.31
2019-02-24T02:33:44.905Z,970.32
2019-02-24T02:34:44.913Z,970.30
2019-02-24T02:35:44.887Z,970.28
2019-02-24T02:36:44.872Z,970.23
2019-02-24T02:37:44.877Z,970.22
2019-02-24T02:38:44.846Z,970.21
2019-02-24T02:39:44.828Z,970.20
2019-02-24T02:40:44.824Z,970.20
2019-02-24T02:41:44.841Z,970.20
2019-02-24T02:42:44.869Z,970.18
2019-02-24T02:43:44.798Z,970.23
2019-02-24T02:44:44.792Z,970.22
2019-02-24T02:45:44.780Z,970.25
2019-02-24T02:46:44.766Z,970.22
2019-02-24T02:47:44.749Z,970.23
2019-02-24T02:48:44.785Z,970.24
2019-02-24T02:49:44.731Z,970.29
2019-02-24T02:50:44.719Z,970.30
2019-02-24T02:51:44.706Z,970.27
2019-02-24T02:52:44.693Z,970.29
2019-02-24T02:53:44.690Z,970.40
2019-02-24T02:54:44.701Z,970.41
2019-02-24T02:55:44.664Z,970.51
2019-02-24T02:56:44.644Z,970.53
2019-02-24T02:57:44.646Z,970.55
2019-02-24T02:58:53.646Z,970.61
2019-02-24T02:59:45.614Z,970.61
2019-02-24T03:00:44.633Z,970.60
2019-02-24T03:01:44.599Z,970.61
2019-02-24T03:02:44.604Z,970.67
2019-02-24T03:03:44.576Z,970.64
2019-02-24T03:04:45.017Z,970.66
2019-02-24T03:05:44.558Z,970.64
2019-02-24T03:06:44.558Z,970.65
2019-02-24T03:07:44.533Z,970.66
2019-02-24T03:08:44.526Z,970.69
2019-02-24T03:09:44.510Z,970.72
2019-02-24T03:10:44.514Z,970.72
2019-02-24T03:11:44.497Z,970.75
2019-02-24T03:12:44.511Z,970.73
2019-02-24T03:13:44.957Z,970.69
2019-02-24T03:14:44.456Z,970.71
2019-02-24T03:15:44.482Z,970.68
2019-02-24T03:16:44.430Z,970.69
2019-02-24T03:17:44.415Z,970.63
2019-02-24T03:18:44.439Z,970.63
2019-02-24T03:19:44.396Z,970.59
2019-02-24T03:20:44.386Z,970.63
2019-02-24T03:21:44.396Z,970.61
2019-02-24T03:22:44.366Z,970.57
2019-02-24T03:23:44.351Z,970.59
2019-02-24T03:24:44.355Z,970.53
2019-02-24T03:25:44.351Z,970.54
2019-02-24T03:26:44.336Z,970.53
2019-02-24T03:27:44.315Z,970.47
2019-02-24T03:28:44.301Z,970.51
2019-02-24T03:29:44.292Z,970.50
2019-02-24T03:30:44.307Z,970.44
2019-02-24T03:31:44.304Z,970.46
2019-02-24T03:32:44.467Z,970.40
2019-02-24T03:33:45.116Z,970.46
2019-02-24T03:34:44.234Z,970.41
2019-02-24T03:35:44.225Z,970.43
2019-02-24T03:36:44.242Z,970.40
2019-02-24T03:37:44.213Z,970.40
2019-02-24T03:38:44.197Z,970.35
2019-02-24T03:39:44.182Z,970.32
2019-02-24T03:40:44.165Z,970.37
2019-02-24T03:41:44.161Z,970.37
2019-02-24T03:42:44.211Z,970.36
2019-02-24T03:43:44.133Z,970.38
2019-02-24T03:44:44.126Z,970.38
2019-02-24T03:45:44.112Z,970.36
2019-02-24T03:46:44.115Z,970.34
2019-02-24T03:47:44.093Z,970.38
2019-02-24T03:48:44.099Z,970.40
2019-02-24T03:49:44.111Z,970.40
2019-02-24T03:50:44.059Z,970.36
2019-02-24T03:51:44.047Z,970.41
2019-02-24T03:52:44.036Z,970.41
2019-02-24T03:53:44.050Z,970.37
2019-02-24T03:54:44.019Z,970.37
2019-02-24T03:55:44.003Z,970.36
2019-02-24T03:56:44.018Z,970.38
2019-02-24T03:57:43.987Z,970.38
2019-02-24T03:58:43.972Z,970.32
2019-02-24T03:59:43.971Z,970.40
2019-02-24T04:00:43.952Z,970.41
2019-02-24T04:01:43.940Z,970.44
2019-02-24T04:02:43.960Z,970.47
2019-02-24T04:03:43.924Z,970.49
2019-02-24T04:04:43.934Z,970.46
2019-02-24T04:05:43.899Z,970.46
2019-02-24T04:06:43.890Z,970.46
2019-02-24T04:07:43.895Z,970.48
2019-02-24T04:08:43.866Z,970.47
2019-02-24T04:09:43.895Z,970.48
2019-02-24T04:10:43.879Z,970.45
2019-02-24T04:11:43.831Z,970.42
2019-02-24T04:12:43.831Z,970.45
2019-02-24T04:13:43.806Z,970.45
2019-02-24T04:14:43.804Z,970.47
2019-02-24T04:15:43.809Z,970.50
2019-02-24T04:16:43.793Z,970.51
2019-02-24T04:17:43.768Z,970.51
2019-02-24T04:18:43.756Z,970.39
2019-02-24T04:19:43.749Z,970.39
2019-02-24T04:20:43.739Z,970.39
2019-02-24T04:21:43.764Z,970.42
2019-02-24T04:22:43.715Z,970.38
2019-02-24T04:23:43.706Z,970.36
2019-02-24T04:24:43.687Z,970.36
2019-02-24T04:25:44.453Z,970.33
2019-02-24T04:26:43.692Z,970.39
2019-02-24T04:27:43.679Z,970.41
2019-02-24T04:28:43.649Z,970.39
2019-02-24T04:29:43.634Z,970.41
2019-02-24T04:30:43.623Z,970.40
2019-02-24T04:31:43.610Z,970.44
2019-02-24T04:32:43.655Z,970.50
2019-02-24T04:33:43.590Z,970.52
2019-02-24T04:34:43.587Z,970.50
2019-02-24T04:35:43.571Z,970.57
2019-02-24T04:36:43.556Z,970.52
2019-02-24T04:37:43.550Z,970.55
2019-02-24T04:38:43.578Z,970.59
2019-02-24T04:39:43.523Z,970.57
2019-02-24T04:40:43.513Z,970.50
2019-02-24T04:41:43.506Z,970.50
2019-02-24T04:42:43.992Z,970.42
2019-02-24T04:43:43.521Z,970.45
2019-02-24T04:44:43.492Z,970.43
2019-02-24T04:45:43.462Z,970.40
2019-02-24T04:46:43.452Z,970.41
2019-02-24T04:47:43.450Z,970.43
2019-02-24T04:48:43.433Z,970.40
2019-02-24T04:49:43.445Z,970.44
2019-02-24T04:50:43.445Z,970.42
2019-02-24T04:51:43.402Z,970.48
2019-02-24T04:52:43.393Z,970.42
2019-02-24T04:53:43.375Z,970.41
2019-02-24T04:54:43.362Z,970.39
2019-02-24T04:55:43.372Z,970.38
2019-02-24T04:56:43.366Z,970.37
2019-02-24T04:57:43.330Z,970.39
2019-02-24T04:58:43.318Z,970.37
2019-02-24T04:59:43.308Z,970.42
2019-02-24T05:00:43.311Z,970.40
2019-02-24T05:01:43.287Z,970.37
2019-02-24T05:02:43.301Z,970.37
2019-02-24T05:03:43.274Z,970.37
2019-02-24T05:04:43.262Z,970.34
2019-02-24T05:05:43.263Z,970.35
2019-02-24T05:06:43.241Z,970.35
2019-02-24T05:07:43.226Z,970.33
2019-02-24T05:08:43.233Z,970.32
2019-02-24T05:09:43.211Z,970.38
2019-02-24T05:10:43.223Z,970.40
2019-02-24T05:11:43.185Z,970.38
2019-02-24T05:12:43.192Z,970.36
2019-02-24T05:13:43.162Z,970.36
2019-02-24T05:14:43.149Z,970.40
2019-02-24T05:15:43.158Z,970.39
2019-02-24T05:16:43.145Z,970.34
2019-02-24T05:17:43.120Z,970.34
2019-02-24T05:18:43.109Z,970.34
2019-02-24T05:19:43.099Z,970.40
2019-02-24T05:20:43.132Z,970.42
2019-02-24T05:21:43.117Z,970.42
2019-02-24T05:22:43.065Z,970.48
2019-02-24T05:23:43.200Z,970.50
2019-02-24T05:24:43.040Z,970.54
2019-02-24T05:25:43.032Z,970.59
2019-02-24T05:26:43.050Z,970.58
2019-02-24T05:27:43.030Z,970.54
2019-02-24T05:28:42.999Z,970.55
2019-02-24T05:29:46.074Z,970.58
2019-02-24T05:30:42.979Z,970.54
2019-02-24T05:31:42.970Z,970.58
2019-02-24T05:32:42.981Z,970.56
2019-02-24T05:33:42.973Z,970.51
2019-02-24T05:34:42.934Z,970.50
2019-02-24T05:35:42.923Z,970.52
2019-02-24T05:36:42.914Z,970.50
2019-02-24T05:37:42.930Z,970.52
2019-02-24T05:38:42.889Z,970.47
2019-02-24T05:39:42.887Z,970.40
2019-02-24T05:40:42.892Z,970.36
2019-02-24T05:41:42.861Z,970.34
2019-02-24T05:42:42.846Z,970.35
2019-02-24T05:43:42.870Z,970.37
2019-02-24T05:44:42.824Z,970.29
2019-02-24T05:45:42.815Z,970.28
2019-02-24T05:46:42.841Z,970.29
2019-02-24T05:47:42.804Z,970.25
2019-02-24T05:48:42.784Z,970.22
2019-02-24T05:49:42.813Z,970.22
2019-02-24T05:50:42.785Z,970.14
2019-02-24T05:51:42.743Z,970.17
2019-02-24T05:52:42.742Z,970.17
2019-02-24T05:53:42.754Z,970.20
2019-02-24T05:54:42.710Z,970.19
2019-02-24T05:55:42.717Z,970.26
2019-02-24T05:56:42.698Z,970.28
2019-02-24T05:57:42.694Z,970.27
2019-02-24T05:58:42.677Z,970.27
2019-02-24T05:59:42.665Z,970.26
2019-02-24T06:00:42.702Z,970.26
2019-02-24T06:01:42.638Z,970.25
2019-02-24T06:02:42.627Z,970.22
2019-02-24T06:03:42.625Z,970.22
2019-02-24T06:04:42.612Z,970.22
2019-02-24T06:05:42.594Z,970.26
2019-02-24T06:06:42.644Z,970.24
2019-02-24T06:07:42.576Z,970.19
2019-02-24T06:08:43.602Z,970.24
2019-02-24T06:09:42.554Z,970.22
2019-02-24T06:10:42.538Z,970.21
2019-02-24T06:11:42.533Z,970.23
2019-02-24T06:12:42.555Z,970.19
2019-02-24T06:13:42.512Z,970.18
2019-02-24T06:14:42.527Z,970.11
2019-02-24T06:15:42.479Z,970.13
2019-02-24T06:16:42.479Z,970.18
2019-02-24T06:17:52.599Z,970.17
2019-02-24T06:18:42.658Z,970.18
2019-02-24T06:19:42.513Z,970.14
2019-02-24T06:20:42.532Z,970.19
2019-02-24T06:21:42.572Z,970.18
2019-02-24T06:22:42.439Z,970.19
2019-02-24T06:23:42.438Z,970.20
2019-02-24T06:24:42.458Z,970.17
2019-02-24T06:25:42.381Z,970.07
2019-02-24T06:26:42.374Z,970.06
2019-02-24T06:28:42.013Z,970.12
2019-02-24T06:29:42.071Z,970.05
2019-02-24T06:30:41.898Z,970.02
2019-02-24T06:31:41.864Z,970.00
2019-02-24T06:32:41.922Z,970.04
2019-02-24T06:33:41.875Z,969.99
2019-02-24T06:34:41.869Z,969.94
2019-02-24T06:35:41.819Z,969.88
2019-02-24T06:36:41.826Z,969.97
2019-02-24T06:37:41.787Z,970.04
2019-02-24T06:38:41.787Z,970.06
2019-02-24T06:39:41.814Z,970.04
2019-02-24T06:40:41.777Z,970.00
2019-02-24T06:41:41.834Z,969.98
2019-02-24T06:42:41.770Z,969.97
2019-02-24T06:43:41.732Z,969.98
2019-02-24T06:44:41.744Z,969.98
2019-02-24T06:45:41.743Z,969.91
2019-02-24T06:46:41.693Z,969.92
2019-02-24T06:47:51.535Z,969.88
2019-02-24T06:48:41.725Z,969.93
2019-02-24T06:49:55.153Z,969.99
2019-02-24T06:50:53.132Z,970.03
2019-02-24T06:51:41.822Z,970.05
2019-02-24T06:52:42.577Z,970.00
2019-02-24T06:53:41.873Z,970.03
2019-02-24T06:54:41.679Z,970.06
2019-02-24T06:55:52.219Z,970.06
2019-02-24T06:56:43.181Z,970.06
2019-02-24T06:57:53.418Z,970.12
2019-02-24T06:58:55.717Z,970.09
2019-02-24T06:59:41.592Z,970.08
2019-02-24T07:00:53.167Z,970.11
2019-02-24T07:01:42.538Z,970.12
2019-02-24T07:02:56.774Z,970.10
2019-02-24T07:03:51.291Z,970.17
2019-02-24T07:05:56.238Z,970.10
2019-02-24T07:08:08.911Z,970.02
2019-02-24T07:10:20.795Z,969.98
2019-02-24T07:12:39.365Z,969.90
2019-02-24T07:13:47.429Z,969.99
2019-02-24T07:14:47.120Z,970.00
2019-02-24T07:15:48.485Z,970.01
2019-02-24T07:19:12.269Z,970.03
2019-02-24T07:20:22.510Z,970.15
2019-02-24T07:21:12.137Z,970.06
2019-02-24T07:22:15.030Z,970.05
2019-02-24T07:23:15.014Z,969.99
2019-02-24T07:24:14.986Z,970.02
2019-02-24T07:25:23.138Z,970.02
2019-02-24T07:26:12.064Z,970.05
2019-02-24T07:27:13.011Z,970.05
2019-02-24T07:28:13.994Z,969.97
2019-02-24T07:29:24.183Z,969.94
2019-02-24T07:30:23.932Z,969.97
2019-02-24T07:31:28.729Z,969.98
2019-02-24T07:32:27.524Z,969.92
2019-02-24T07:33:23.750Z,969.95
2019-02-24T07:34:21.860Z,969.97
2019-02-24T07:35:12.018Z,969.84
2019-02-24T07:36:24.328Z,969.83
2019-02-24T07:37:13.183Z,969.83
2019-02-24T07:38:24.422Z,969.85
2019-02-24T07:39:22.765Z,969.85
2019-02-24T07:40:24.978Z,969.82
2019-02-24T07:41:24.472Z,969.87
2019-02-24T07:42:28.719Z,969.84
2019-02-24T07:43:23.452Z,969.84
2019-02-24T07:44:12.841Z,969.84
2019-02-24T07:45:12.887Z,969.80
2019-02-24T07:46:12.423Z,969.83
2019-02-24T07:47:24.123Z,969.83
2019-02-24T07:48:11.854Z,969.89
2019-02-24T07:49:28.575Z,969.92
2019-02-24T07:50:21.824Z,969.93
2019-02-24T07:51:28.165Z,969.96
2019-02-24T07:53:27.468Z,969.97
2019-02-24T07:54:27.279Z,969.92
2019-02-24T07:55:31.824Z,969.95
2019-02-24T07:56:29.221Z,969.89
2019-02-24T07:57:27.217Z,969.90
2019-02-24T07:58:36.810Z,969.86
2019-02-24T07:59:27.257Z,969.93
2019-02-24T08:00:32.354Z,969.92
2019-02-24T08:03:54.926Z,969.96
2019-02-24T08:06:04.144Z,969.95
2019-02-24T08:08:16.902Z,969.86
2019-02-24T08:10:28.789Z,969.85
2019-02-24T08:11:39.462Z,969.79
2019-02-24T08:13:43.997Z,969.78
2019-02-24T08:15:34.818Z,969.78
2019-02-24T08:19:01.256Z,969.84
2019-02-24T08:21:11.466Z,969.84
2019-02-24T08:22:21.677Z,969.89
2019-02-24T08:23:25.735Z,969.88
2019-02-24T08:24:11.395Z,969.89
2019-02-24T08:25:20.832Z,969.89
2019-02-24T08:26:25.264Z,969.83
2019-02-24T08:27:24.788Z,969.87
2019-02-24T08:28:21.745Z,969.88
2019-02-24T08:29:19.983Z,969.91
2019-02-24T08:30:11.365Z,969.96
2019-02-24T08:31:11.409Z,969.98
2019-02-24T08:32:13.821Z,969.95
2019-02-24T08:33:11.383Z,969.94
2019-02-24T08:34:19.957Z,970.01
2019-02-24T08:35:11.267Z,970.03
2019-02-24T08:36:11.282Z,970.01
2019-02-24T08:37:11.850Z,970.07
2019-02-24T08:38:12.957Z,970.07
2019-02-24T08:39:11.170Z,970.10
2019-02-24T08:40:11.166Z,970.04
2019-02-24T08:41:11.111Z,970.06
2019-02-24T08:42:11.114Z,970.12
2019-02-24T08:43:12.099Z,970.19
2019-02-24T08:44:11.136Z,970.11
2019-02-24T08:45:11.105Z,970.09
2019-02-24T08:47:21.424Z,970.10
2019-02-24T08:48:21.404Z,970.08
2019-02-24T08:49:21.367Z,970.10
2019-02-24T08:50:21.459Z,970.10
2019-02-24T08:51:23.304Z,970.15
2019-02-24T08:52:22.262Z,970.15
2019-02-24T08:53:21.285Z,970.19
2019-02-24T08:54:23.061Z,970.20
2019-02-24T08:55:21.235Z,970.20
2019-02-24T08:56:21.548Z,970.27
2019-02-24T08:57:32.803Z,970.30
2019-02-24T08:58:21.383Z,970.34
2019-02-24T08:59:21.281Z,970.34
2019-02-24T09:00:30.681Z,970.38
2019-02-24T09:01:22.188Z,970.39
2019-02-24T09:02:21.255Z,970.39
2019-02-24T09:03:21.292Z,970.40
2019-02-24T09:04:21.170Z,970.37
2019-02-24T09:05:21.116Z,970.39
2019-02-24T09:06:21.112Z,970.43
2019-02-24T09:07:21.163Z,970.41
2019-02-24T09:08:21.090Z,970.42
2019-02-24T09:09:21.094Z,970.46
2019-02-24T09:10:21.056Z,970.43
2019-02-24T09:11:21.060Z,970.47
2019-02-24T09:12:21.113Z,970.38
2019-02-24T09:13:21.087Z,970.39
2019-02-24T09:14:21.610Z,970.41
2019-02-24T09:15:21.023Z,970.43
2019-02-24T09:16:21.015Z,970.47
2019-02-24T09:17:20.985Z,970.47
2019-02-24T09:18:21.115Z,970.43
2019-02-24T09:19:21.594Z,970.45
2019-02-24T09:20:20.981Z,970.52
2019-02-24T09:21:20.933Z,970.53
2019-02-24T09:22:20.972Z,970.56
2019-02-24T09:23:21.591Z,970.58
2019-02-24T09:24:20.901Z,970.61
2019-02-24T09:25:20.911Z,970.61
2019-02-24T09:26:20.891Z,970.62
2019-02-24T09:27:20.900Z,970.62
2019-02-24T09:28:20.883Z,970.63
2019-02-24T09:29:21.887Z,970.68
2019-02-24T09:30:20.868Z,970.67
2019-02-24T09:31:20.912Z,970.67
2019-02-24T09:32:21.632Z,970.69
2019-02-24T09:33:20.816Z,970.70
2019-02-24T09:34:20.874Z,970.71
2019-02-24T09:35:20.785Z,970.70
2019-02-24T09:36:20.802Z,970.73
2019-02-24T09:37:20.859Z,970.74
2019-02-24T09:38:20.753Z,970.79
2019-02-24T09:39:20.758Z,970.76
2019-02-24T09:40:20.773Z,970.82
2019-02-24T09:41:20.724Z,970.83
2019-02-24T09:42:20.701Z,970.80
2019-02-24T09:43:20.718Z,970.79
2019-02-24T09:44:20.726Z,970.79
2019-02-24T09:45:20.789Z,970.84
2019-02-24T09:46:21.581Z,970.83
2019-02-24T09:47:20.660Z,970.85
2019-02-24T09:48:20.654Z,970.91
2019-02-24T09:49:20.630Z,970.87
2019-02-24T09:50:20.642Z,970.87
2019-02-24T09:51:20.609Z,970.85
2019-02-24T09:52:20.612Z,970.85
2019-02-24T09:53:20.573Z,970.87
2019-02-24T09:54:20.595Z,970.85
2019-02-24T09:55:20.548Z,970.89
2019-02-24T09:56:20.606Z,970.89
2019-02-24T09:57:21.542Z,970.92
2019-02-24T09:58:20.529Z,970.97
2019-02-24T09:59:20.538Z,970.93
2019-02-24T10:00:22.066Z,970.93
2019-02-24T10:01:20.498Z,970.91
2019-02-24T10:02:20.517Z,970.92
2019-02-24T10:03:20.467Z,970.87
2019-02-24T10:04:21.093Z,970.87
2019-02-24T10:05:20.448Z,970.90
2019-02-24T10:06:20.445Z,970.91
2019-02-24T10:07:21.462Z,970.96
2019-02-24T10:08:20.405Z,970.95
2019-02-24T10:09:20.388Z,970.96
2019-02-24T10:10:20.414Z,971.01
2019-02-24T10:11:20.439Z,970.95
2019-02-24T10:12:20.370Z,970.96
2019-02-24T10:13:20.407Z,970.97
2019-02-24T10:14:20.351Z,970.94
2019-02-24T10:15:20.322Z,970.89
2019-02-24T10:16:20.357Z,970.87
2019-02-24T10:17:20.349Z,970.94
2019-02-24T10:18:20.305Z,970.91
2019-02-24T10:19:20.301Z,970.95
2019-02-24T10:20:20.288Z,970.92
2019-02-24T10:21:20.271Z,970.90
2019-02-24T10:22:20.257Z,970.85
2019-02-24T10:23:20.230Z,970.86
2019-02-24T10:24:20.278Z,970.91
2019-02-24T10:25:20.226Z,970.88
2019-02-24T10:26:20.229Z,970.93
2019-02-24T10:27:20.205Z,970.90
2019-02-24T10:28:20.205Z,970.93
2019-02-24T10:29:20.172Z,970.90
2019-02-24T10:30:20.189Z,970.87
2019-02-24T10:31:46.167Z,970.88
2019-02-24T10:32:20.146Z,970.91
2019-02-24T10:33:20.166Z,970.88
2019-02-24T10:34:20.136Z,970.83
2019-02-24T10:35:20.120Z,970.82
2019-02-24T10:36:20.097Z,970.85
2019-02-24T10:37:20.101Z,970.83
2019-02-24T10:38:20.074Z,970.86
2019-02-24T10:39:29.352Z,970.86
2019-02-24T10:40:21.082Z,970.86
2019-02-24T10:41:20.048Z,970.84
2019-02-24T10:42:20.036Z,970.81
2019-02-24T10:43:20.046Z,970.82
2019-02-24T10:44:20.007Z,970.80
2019-02-24T10:45:19.999Z,970.84
2019-02-24T10:46:20.016Z,970.81
2019-02-24T10:47:20.021Z,970.82
2019-02-24T10:48:19.960Z,970.88
2019-02-24T10:49:19.947Z,970.87
2019-02-24T10:50:19.958Z,970.86
2019-02-24T10:51:20.048Z,970.81
2019-02-24T10:52:19.923Z,970.82
2019-02-24T10:53:19.911Z,970.85
2019-02-24T10:54:19.889Z,970.83
2019-02-24T10:55:19.875Z,970.85
2019-02-24T10:56:19.855Z,970.84
2019-02-24T10:57:19.879Z,970.82
2019-02-24T10:58:21.222Z,970.81
2019-02-24T10:59:19.825Z,970.86
2019-02-24T11:00:19.818Z,970.81
2019-02-24T11:01:45.638Z,970.83
2019-02-24T11:02:19.855Z,970.89
2019-02-24T11:03:19.779Z,970.83
2019-02-24T11:04:19.763Z,970.81
2019-02-24T11:05:19.774Z,970.77
2019-02-24T11:06:19.787Z,970.75
2019-02-24T11:07:19.733Z,970.69
2019-02-24T11:08:19.786Z,970.67
2019-02-24T11:09:19.751Z,970.67
2019-02-24T11:10:19.707Z,970.64
2019-02-24T11:11:19.688Z,970.64
2019-02-24T11:12:19.683Z,970.62
2019-02-24T11:13:19.711Z,970.59
2019-02-24T11:14:19.667Z,970.57
2019-02-24T11:15:19.646Z,970.58
2019-02-24T11:16:19.638Z,970.62
2019-02-24T11:17:19.639Z,970.61
2019-02-24T11:18:19.612Z,970.62
2019-02-24T11:19:19.626Z,970.59
2019-02-24T11:20:19.611Z,970.61
2019-02-24T11:21:19.578Z,970.59
2019-02-24T11:22:19.569Z,970.61
2019-02-24T11:23:19.555Z,970.56
2019-02-24T11:24:19.587Z,970.60
2019-02-24T11:25:19.537Z,970.55
2019-02-24T11:26:19.556Z,970.53
2019-02-24T11:27:19.505Z,970.52
2019-02-24T11:28:19.497Z,970.52
2019-02-24T11:29:19.489Z,970.53
2019-02-24T11:30:19.491Z,970.47
2019-02-24T11:31:19.450Z,970.50
2019-02-24T11:32:19.487Z,970.43
2019-02-24T11:33:19.444Z,970.44
2019-02-24T11:34:19.425Z,970.43
2019-02-24T11:35:19.444Z,970.48
2019-02-24T11:36:19.404Z,970.41
2019-02-24T11:37:19.392Z,970.39
2019-02-24T11:38:19.389Z,970.39
2019-02-24T11:39:19.372Z,970.33
2019-02-24T11:40:19.361Z,970.35
2019-02-24T11:41:19.368Z,970.31
2019-02-24T11:42:19.331Z,970.31
2019-02-24T11:43:19.335Z,970.32
2019-02-24T11:44:19.310Z,970.35
2019-02-24T11:45:19.305Z,970.32
2019-02-24T11:46:19.309Z,970.36
2019-02-24T11:47:19.281Z,970.33
2019-02-24T11:48:19.267Z,970.31
2019-02-24T11:49:19.244Z,970.31
2019-02-24T11:50:19.241Z,970.25
2019-02-24T11:51:19.239Z,970.27
2019-02-24T11:52:19.244Z,970.30
2019-02-24T11:53:19.209Z,970.30
2019-02-24T11:54:19.195Z,970.32
2019-02-24T11:55:19.190Z,970.32
2019-02-24T11:56:19.722Z,970.26
2019-02-24T11:57:19.178Z,970.24
2019-02-24T11:58:19.161Z,970.24
2019-02-24T11:59:19.139Z,970.19
2019-02-24T12:00:19.130Z,970.22
2019-02-24T12:01:19.121Z,970.19
2019-02-24T12:02:19.122Z,970.20
2019-02-24T12:03:19.085Z,970.26
2019-02-24T12:04:19.087Z,970.23
2019-02-24T12:05:19.069Z,970.20
2019-02-24T12:06:19.057Z,970.21
2019-02-24T12:07:19.057Z,970.21
2019-02-24T12:08:19.049Z,970.20
2019-02-24T12:09:19.041Z,970.18
2019-02-24T12:10:19.014Z,970.16
2019-02-24T12:11:19.013Z,970.15
2019-02-24T12:12:18.992Z,970.12
2019-02-24T12:13:19.008Z,970.11
2019-02-24T12:14:18.978Z,970.04
2019-02-24T12:15:18.957Z,970.01
2019-02-24T12:16:18.971Z,970.02
2019-02-24T12:17:18.928Z,970.02
2019-02-24T12:18:18.929Z,970.06
2019-02-24T12:19:18.928Z,970.08
2019-02-24T12:20:18.900Z,970.09
2019-02-24T12:21:18.885Z,970.05
2019-02-24T12:22:18.885Z,970.05
2019-02-24T12:23:18.869Z,970.04
2019-02-24T12:24:18.886Z,970.02
2019-02-24T12:25:18.844Z,970.05
2019-02-24T12:26:18.837Z,970.04
2019-02-24T12:27:18.824Z,970.02
2019-02-24T12:28:18.800Z,970.05
2019-02-24T12:29:18.801Z,970.05
2019-02-24T12:30:18.800Z,970.10
2019-02-24T12:31:18.784Z,970.06
2019-02-24T12:32:18.764Z,970.10
2019-02-24T12:33:18.757Z,970.10
2019-02-24T12:34:18.738Z,970.09
2019-02-24T12:35:18.747Z,970.14
2019-02-24T12:36:18.741Z,970.13
2019-02-24T12:37:18.701Z,970.11
2019-02-24T12:38:18.706Z,970.13
2019-02-24T12:39:18.692Z,970.15
2019-02-24T12:40:18.673Z,970.17
2019-02-24T12:41:18.685Z,970.16
2019-02-24T12:42:18.644Z,970.15
2019-02-24T12:43:18.634Z,970.12
2019-02-24T12:44:18.619Z,970.12
2019-02-24T12:45:18.640Z,970.11
2019-02-24T12:46:18.652Z,970.12
2019-02-24T12:47:18.592Z,970.10
2019-02-24T12:48:18.607Z,970.11
2019-02-24T12:49:18.587Z,970.10
2019-02-24T12:50:18.568Z,970.06
2019-02-24T12:51:18.550Z,970.08